• Join FlightAware (Why Join?)
  • Login
  • US Flag 
Rudolph Flight #1: Arrived! 
07:39AM EST


 

Airport Tracker/Info


-or-


 

Live Flight TrackerFlight Track Log ✈ UAL464 ✈ 04-Jul-2013 ✈ KIAH - KMSY

Flight Track Log - Related Links

Times and Time Zones

All times are in EDT time to prevent confusion due to time zone crossing. See the UAL464 flight status page for this flight to view local times or setup timezone preferences in your user account.

Time Position Orientation Groundspeed Altitude Reporting Facility
EDT Latitude Longitude Course Direction KTS MPH feet Rate Location/Type
09:25PM 29.9639 -95.3433 98° East 172 198 900  Level Houston Center
09:26PM 29.9378 -95.2989 124° Southeast 208 239 2,800 2,280 Climbing Houston Center
09:27PM 29.9289 -94.9890 97° East  Level FlightAware Approximate
09:27PM 29.9189 -95.2247 106° East 250 288 5,400  Level Houston Center
09:28PM 29.9173 -94.8730 97° East  Level FlightAware Approximate
09:28PM 29.9133 -95.1358 94° East 273 314 8,500  Level Houston Center
09:29PM 29.9075 -94.7568 95° East  Level FlightAware Approximate
09:29PM 29.9081 -95.0392 94° East 291 335 10,900  Level Houston Center
09:30PM 29.8970 -94.6407 98° East  Level FlightAware Approximate
09:30PM 29.9006 -94.9219 94° East 361 415 12,600  Level Houston Center
09:31PM 29.8983 -94.8000 91° East 378 435 15,100 2,160 Climbing Houston Center
09:32PM 29.9069 -94.6719 86° East 398 458 17,000 1,740 Climbing Houston Center
09:33PM 29.9167 -94.5392 85° East 413 475 18,700 1,800 Climbing Houston Center
09:34PM 29.9261 -94.4050 85° East 430 495 20,600 1,680 Climbing Houston Center
09:35PM 29.9356 -94.2644 86° East 440 506 22,200 1,500 Climbing Houston Center
09:36PM 29.9472 -94.0881 86° East 461 531 23,700 1,500 Climbing Houston Center
09:37PM 29.9569 -93.9378 86° East 472 543 25,300 1,380 Climbing Houston Center
09:38PM 29.9672 -93.7844 86° East 481 554 26,500 1,500 Climbing Houston Center
09:39PM 29.9767 -93.6286 86° East 489 563 28,400 1,740 Climbing Houston Center
09:40PM 29.9842 -93.4761 87° East 484 557 30,100 1,260 Climbing Houston Center
09:41PM 29.9942 -93.3253 86° East 479 551 31,000 360 Climbing Houston Center
09:42PM 30.0025 -93.1753 86° East 474 545 30,900  Descending Houston Center
09:43PM 30.0111 -93.0242 86° East 477 549 31,000  Climbing Houston Center
09:44PM 30.0208 -92.8744 86° East 472 543 31,000  Level Houston Center
09:45PM 30.0286 -92.7217 87° East 477 549 31,000  Level Houston Center
09:46PM 30.0392 -92.5689 85° East 478 550 31,000 -480 Level Houston Center
09:47PM 30.0475 -92.4175 86° East 477 549 30,100 -1,260 Descending Houston Center
09:48PM 30.0550 -92.2644 87° East 477 549 28,500 -2,040 Descending Houston Center
09:49PM 30.0661 -92.0833 86° East 475 547 26,000 -2,220 Descending Houston Center
09:50PM 30.0706 -91.9375 88° East 464 534 24,100 -1,980 Descending Houston Center
09:51PM 30.0786 -91.7953 86° East 448 516 22,100 -1,980 Descending Houston Center
09:52PM 30.0850 -91.6594 87° East 439 505 20,200 -1,920 Descending Houston Center
09:53PM 30.0922 -91.5228 86° East 430 495 18,300 -1,920 Descending Houston Center
09:54PM 30.0989 -91.3911 87° East 418 481 16,300 -1,920 Descending Houston Center
09:55PM 30.1047 -91.2639 87° East 403 464 14,500 -1,920 Descending Houston Center
09:55PM 30.1078 -91.1906 87° East 380 437 13,400 -1,860 Descending Houston Center
09:56PM 30.1114 -91.0822 88° East 362 417 11,800 -1,380 Descending Houston Center
09:57PM 30.1136 -91.0300 87° East 362 417 11,400 -900 Descending Houston Center
09:58PM 30.1106 -90.9314 92° East 320 368 10,400 -1,380 Descending Houston Center
09:59PM 30.0950 -90.8378 101° East 300 345 8,600 -2,040 Descending Houston Center
10:00PM 30.0825 -90.7497 99° East 287 330 6,400 -2,220 Descending Houston Center
10:01PM 30.0678 -90.6639 101° East 280 322 4,200 -1,260 Descending Houston Center
10:02PM 30.0556 -90.5800 100° East 273 314 3,900 -240 Descending Houston Center
10:03PM 30.0422 -90.5083 102° East 250 288 3,800 -120 Descending Houston Center